India Forums Logo

F.I.R

India Forums > Forum Index > F.I.R
F.I.R presents to you a female inspector and her funny sub-inspector trying to solve cases.
Concept & Story: F.I.R presents to you a female inspector and her funny sub-inspector trying to solve cases. Their sincere attempts to crack the mysteries are hilarious and worth a hearty laugh. The sitcom is set in a Police Station where constables indulge in amazing antics. A space you must visit to experience an amusing and entertaining comedy.
<< | 1 | 2 | 3 | 4 | 5 | 6 | 7 | 8 | 9 | 10 | ... >>
TIDTopic SubjectStart DateLast Entry
1174057Welcome to FIR forum.....5/4/2009 6:57:25 PM8/9/2009 1:02:04 PM
1174059Regular updaters needed...5/4/2009 6:59:11 PM12/1/2009 12:05:19 PM
1174060FIR.. Picture Gallery..5/4/2009 7:01:16 PM11/4/2009 2:44:24 AM
1174063Shiv Pnadit article....5/4/2009 7:12:34 PM5/4/2009 7:12:34 PM
1174067Character sketch5/4/2009 7:17:42 PM11/4/2009 2:45:34 AM
1174390*^* Apna Introduction - Hum sab ke liye *5/5/2009 9:27:39 AM2/24/2010 3:01:47 AM
1174392FIR Suggestions/Comments/Help Desk5/5/2009 9:28:13 AM9/29/2009 11:39:04 PM
1174393::: FIR Articles-No Comments:::::5/5/2009 9:28:41 AM11/4/2009 2:44:57 AM
1190211Shiv Pandit In a Tamil Film6/3/2009 2:13:02 AM11/4/2009 4:47:11 PM
1191218When did it start...6/4/2009 3:50:07 PM9/5/2009 11:23:42 PM
1200080Shiv Pandit and F.I.R6/20/2009 12:40:47 PM8/31/2009 1:39:14 AM
1223199Dwnld F.I.R ~ Time Change - 29 July Promo !!EHQ!!7/29/2009 5:41:21 AM7/29/2009 5:41:21 AM
1233446More of Shiv Pandit please!8/14/2009 8:41:11 PM11/4/2009 2:52:11 AM
12337736th August, 2009 Video Update8/15/2009 11:31:36 AM11/4/2009 2:51:48 AM
1233774August 10th 2009 Video update8/15/2009 11:34:33 AM11/4/2009 2:51:22 AM
1243017new here8/31/2009 1:37:57 AM11/20/2009 11:51:34 AM
1249041Help needed!9/9/2009 10:54:37 AM9/9/2009 10:54:37 AM
1256478Dandiya video - F. I.R.9/22/2009 6:41:58 AM9/22/2009 6:41:58 AM
1259017Sri Adi Manav New Promo9/25/2009 6:59:45 PM11/4/2009 2:50:38 AM
1300334Old FIR episodes12/3/2009 8:36:20 PM3/30/2010 7:47:29 AM
1307429Kavita Kaushik in double avatar12/16/2009 10:55:44 AM12/16/2009 10:55:44 AM
1318271video update for 5 jan 20101/5/2010 4:37:54 PM1/5/2010 4:37:54 PM
1319181Kavita slogs in spite of fever - TB Article1/7/2010 6:11:46 AM1/30/2010 1:17:34 AM
1339968HAPPY BIRTHDAY2/15/2010 5:17:50 AM3/20/2010 6:20:20 AM
1346727My middle finger still hurts- Kavita Kaushik!2/26/2010 12:41:25 AM2/26/2010 12:41:25 AM
1359670i luv this show very............3/18/2010 7:01:21 AM7/28/2010 6:43:16 AM
1360448Rakesh Bedi in F.I.R - Telly Buzz3/19/2010 7:02:00 AM3/19/2010 7:02:00 AM
1373910Ali Asgar in Tees Maar Khan4/8/2010 7:51:48 PM7/31/2010 6:12:35 AM
1429259Mithun Chakraborty visits set of FIR : Telly Buzz7/2/2010 1:26:00 AM7/3/2010 10:26:49 AM
1446255WHO WAS MUCH BETTER...7/26/2010 8:07:03 AM8/19/2010 7:08:08 PM
144808227th July *FiR* *EHQ* WO/DL7/28/2010 7:15:52 AM8/2/2010 6:31:30 PM
14532613rd Aug *FiR* *EHQ* WO/DL8/3/2010 7:09:05 PM8/13/2010 12:49:56 PM
14581469th Aug *FiR* *EHQ* WO/DL8/10/2010 9:33:10 AM8/10/2010 9:33:10 AM
145889710th Aug *FiR* *EHQ* WO/DL8/11/2010 6:53:41 AM8/11/2010 6:53:41 AM
146356616th Aug *FiR* *EHQ* WO/DL8/17/2010 6:38:16 AM8/17/2010 6:38:16 AM
146415117th Aug *FiR* *EHQ* WO/DL8/17/2010 8:26:55 PM8/17/2010 8:26:55 PM
146891323rd Aug *FiR* *EHQ* WO/DL8/23/2010 5:17:25 PM8/23/2010 5:17:25 PM
146977324th Aug *FiR* *EHQ* WO/DL8/24/2010 7:21:20 PM8/24/2010 7:21:20 PM
147413430th Aug *FiR* *EHQ* WO/DL8/30/2010 5:13:04 PM8/30/2010 5:13:04 PM
147502331st Aug *FiR* *EHQ* WO/DL8/31/2010 7:36:20 PM8/31/2010 7:36:20 PM
1475035I'm addicted to... Kavita Kaushik (Article)8/31/2010 7:47:39 PM9/2/2010 3:11:26 PM
1477312MEET the prominent women in television9/3/2010 9:54:11 AM9/30/2010 2:46:12 PM
14797266th Sept *FiR* *EHQ* WO/DL9/6/2010 10:44:54 PM9/6/2010 10:44:54 PM
1479810SJKN Segment9/7/2010 2:12:24 AM9/7/2010 6:26:23 AM
14806387th Sept *FiR* *EHQ* WO/DL9/8/2010 12:03:11 AM9/8/2010 12:03:11 AM
1482030TAM Ratings(29/08/2010 to 04/09/2010)9/9/2010 11:06:18 AM9/9/2010 11:06:18 AM
1482728Tellyactors wishing everyone Eid Mubarak9/10/2010 5:28:03 AM9/10/2010 5:28:03 AM
1484428Tellyactors wishing everyone Eid Mubarak -AliAsgar9/12/2010 7:55:46 PM9/12/2010 7:55:46 PM
1484690TB:F.I.R gets promotion9/13/2010 6:43:31 AM9/13/2010 6:43:31 AM
148562613th Sept *FiR* *EHQ* WO/DL9/14/2010 5:00:06 AM9/14/2010 5:00:06 AM
148635214th Sept *FiR* *EHQ* WO/DL9/14/2010 9:56:11 PM9/14/2010 9:56:11 PM
149125620th Sept *FiR* *EHQ* WO/DL9/20/2010 10:41:42 PM9/20/2010 10:41:42 PM
1491264good to see this show going 4 days9/20/2010 11:10:57 PM10/8/2010 5:12:17 PM
149210721st Sept *FiR* *EHQ* WO/DL9/21/2010 6:59:46 PM9/21/2010 6:59:46 PM
1493269Funny traits of our favourite characters9/23/2010 6:11:00 AM10/6/2010 2:50:00 PM
1494122TAM Ratings: 12/09/2010 - 18/09/20109/24/2010 3:49:32 AM9/24/2010 3:49:32 AM
149662927th Sept *FiR* *EHQ* WO/DL9/27/2010 10:36:39 PM9/27/2010 10:36:39 PM
149757028th Sept *FiR* *EHQ* WO/DL9/28/2010 10:32:44 PM9/28/2010 10:32:44 PM
149841529th Sept *FiR* *EHQ* WO/DL9/29/2010 6:50:27 PM9/29/2010 6:50:27 PM
149931930th Sept *FiR* *EHQ* WO/DL9/30/2010 5:57:13 PM10/4/2010 5:45:01 AM
1502508Chandramukhi meets John and Pakhi10/5/2010 3:35:16 AM10/5/2010 3:35:16 AM
15030374th Oct *FiR* *EHQ* WO/DL10/5/2010 1:44:43 PM10/5/2010 1:44:43 PM
15033315th Oct *FiR* *EHQ* WO/DL10/6/2010 1:41:25 AM10/8/2010 5:14:43 PM
15041586th Oct *FiR* *EHQ* WO/DL10/6/2010 10:09:42 PM10/6/2010 10:09:42 PM
15058167th Oct *FiR* *EHQ* WO/DL10/8/2010 5:48:55 PM10/8/2010 5:48:55 PM
150810311th Oct *FiR* *EHQ* WO/DL10/12/2010 12:23:11 AM10/12/2010 12:23:11 AM
150900912th Oct *FiR* *EHQ* WO/DL10/12/2010 9:29:01 PM10/12/2010 9:29:01 PM
151035313th Oct *FiR* *EHQ* WO/DL10/14/2010 8:59:40 AM10/14/2010 8:59:40 AM
151110114th Oct *FiR* *EHQ* WO/DL10/15/2010 6:20:50 AM10/15/2010 6:20:50 AM
15138455 favorite items from my wardrobe10/19/2010 12:54:58 AM10/19/2010 12:54:58 AM
151392018th Oct *FiR* *EHQ* WO/DL10/19/2010 2:54:52 AM10/19/2010 2:54:52 AM
151468619th Oct *FiR* *EHQ* WO/DL10/19/2010 8:10:32 PM10/19/2010 8:10:32 PM
151573320th Oct *FiR* *EHQ* WO/DL10/20/2010 10:43:56 PM10/20/2010 10:43:56 PM
151662621st Oct *FiR* *EHQ* WO/DL10/21/2010 7:51:32 PM10/21/2010 7:51:32 PM
1517003TB: Chandramukhi Chautala's Karwa Chauth on F.I.R!10/22/2010 8:13:13 AM10/22/2010 8:13:13 AM
<< | 1 | 2 | 3 | 4 | 5 | 6 | 7 | 8 | 9 | 10 | ... >>